ウィーン の空港の天気 - METARとTAF

ウィーン国際空港 ( LOWW / VIE ) - オーストリア ウィーン
飛行場実況気象(Metar)
観測時間05/29 00:50 CEST (05/28 22:50 UTC)
風向・風速不定 1m/s
視程10km以上
天気現象
なし
気温12℃
湿度58%
気圧1015hPa
METARLOWW 282250Z VRB02KT CAVOK 12/04 Q1015 NOSIG
過去の天気等 Google飛行場航空写真 Wunderground天気予報

過去48時間のMETAR

飛行場予報(TAF)
発表時間: 5/28 22:15 CEST (5/28 20:15 UTC)
予報対象時間: 28日23時 CEST ~ 30日5時 CEST
風向・風速不定 2m/s
視程10km以上
なし
29日10時 CEST ~ 29日14時 CEST に一時的に
風向・風速東南東 4m/s
29日15時 CEST ~ 29日22時 CEST に一時的に
風向・風速北西 4m/s
天気現象弱い雨
TAF LOWW 282015Z 2821/3003 VRB03KT CAVOK TX15/2911Z TN08/3003Z
TEMPO 2908/2912 12007KT
TEMPO 2913/2920 32007KT -RA